Time;durP1;ratioP1;P1;durP2;ratioP2;P2;SDS_P1;SDS_P2;PMS_P1;PMS_P2;Temp;Humidity;BMP_temperature;BMP_pressure;BME280_temperature;BME280_humidity;BME280_pressure;Samples;Min_cycle;Max_cycle;Signal;HPM_P1;HPM_P2
2023/05/16 00:00:53;;;;;;;8.70;1.58;;;10.90;69.90;;;;;;4991055;28;20046;-70
2023/05/16 00:03:20;;;;;;;11.00;1.40;;;10.80;70.10;;;;;;4985957;28;20058;-70
2023/05/16 00:05:47;;;;;;;8.85;1.50;;;10.70;70.10;;;;;;4991605;28;20311;-70
2023/05/16 00:08:14;;;;;;;7.97;1.58;;;10.70;70.10;;;;;;5003280;28;20050;-69
2023/05/16 00:10:42;;;;;;;12.48;1.40;;;10.70;70.30;;;;;;4989098;28;20917;-69
2023/05/16 00:13:09;;;;;;;11.65;1.67;;;10.60;70.40;;;;;;5009731;28;20505;-70
2023/05/16 00:15:37;;;;;;;8.07;1.17;;;10.60;70.40;;;;;;4992272;28;20043;-69
2023/05/16 00:18:06;;;;;;;10.27;1.52;;;10.60;70.40;;;;;;5008750;28;20254;-70
2023/05/16 00:20:33;;;;;;;12.05;1.42;;;10.50;70.40;;;;;;4991956;28;20047;-69
2023/05/16 00:23:00;;;;;;;12.70;1.92;;;10.50;70.30;;;;;;4999129;28;20077;-69
2023/05/16 00:25:28;;;;;;;8.57;1.42;;;10.50;70.60;;;;;;4991463;28;20109;-70
2023/05/16 00:27:55;;;;;;;10.20;1.30;;;10.50;70.40;;;;;;5004060;28;20057;-69
2023/05/16 00:30:22;;;;;;;11.05;1.63;;;10.40;70.60;;;;;;5029088;28;20415;-69
2023/05/16 00:32:56;;;;;;;8.15;1.38;;;10.40;70.50;;;;;;4993969;28;20062;-70
2023/05/16 00:35:25;;;;;;;8.40;1.30;;;10.40;70.40;;;;;;4990459;28;20052;-70
2023/05/16 00:37:52;;;;;;;11.38;1.00;;;10.30;70.60;;;;;;5009425;28;20124;-69
2023/05/16 00:40:22;;;;;;;8.73;1.57;;;10.30;70.60;;;;;;5008017;28;20050;-70
2023/05/16 00:42:49;;;;;;;8.20;1.75;;;10.30;70.70;;;;;;4991464;28;20341;-69
2023/05/16 00:45:16;;;;;;;9.38;1.10;;;10.20;70.80;;;;;;4974972;28;20046;-69
2023/05/16 00:47:43;;;;;;;9.00;1.60;;;10.10;71.00;;;;;;4991531;28;20524;-69
2023/05/16 00:50:11;;;;;;;6.95;1.40;;;10.10;71.10;;;;;;4975133;28;20129;-70
2023/05/16 00:52:39;;;;;;;10.53;1.33;;;10.00;71.10;;;;;;4973815;28;20124;-70
2023/05/16 00:55:09;;;;;;;12.50;1.30;;;10.00;71.30;;;;;;4973396;28;20379;-69
2023/05/16 00:57:37;;;;;;;10.02;1.90;;;9.90;71.50;;;;;;4973128;28;20047;-69
2023/05/16 01:00:06;;;;;;;13.90;1.60;;;9.80;71.70;;;;;;5010943;28;20054;-69
2023/05/16 01:02:37;;;;;;;9.25;1.05;;;9.80;71.50;;;;;;5007694;28;20132;-70
2023/05/16 01:05:06;;;;;;;12.30;1.20;;;9.80;71.70;;;;;;4989862;28;20101;-70
2023/05/16 01:07:33;;;;;;;9.70;1.67;;;9.70;72.10;;;;;;4955051;28;20262;-69
2023/05/16 01:10:02;;;;;;;7.43;0.90;;;9.70;72.00;;;;;;4973804;28;20499;-69
2023/05/16 01:12:37;;;;;;;10.80;1.48;;;9.70;71.80;;;;;;5020439;28;20068;-69
2023/05/16 01:15:08;;;;;;;11.23;1.30;;;9.60;72.10;;;;;;4987335;28;20050;-69
2023/05/16 01:17:45;;;;;;;11.77;1.70;;;9.50;72.40;;;;;;4955551;28;20783;-69
2023/05/16 01:20:19;;;;;;;10.52;1.00;;;9.40;72.70;;;;;;4987844;28;20315;-69
2023/05/16 01:23:04;;;;;;;8.32;1.27;;;9.40;72.90;;;;;;5008112;28;20054;-70
2023/05/16 01:25:45;;;;;;;7.60;1.10;;;9.40;72.70;;;;;;5008506;28;21100;-69
2023/05/16 01:28:16;;;;;;;8.50;1.13;;;9.30;73.00;;;;;;5007379;28;20970;-69
2023/05/16 01:30:44;;;;;;;7.23;1.03;;;9.30;72.80;;;;;;4990924;28;20121;-69
2023/05/16 01:33:11;;;;;;;6.55;0.77;;;9.20;73.00;;;;;;5006454;28;20735;-69
2023/05/16 01:35:44;;;;;;;9.55;1.13;;;9.20;72.80;;;;;;4990775;28;20054;-69
2023/05/16 01:38:18;;;;;;;9.63;1.00;;;9.20;72.80;;;;;;5007039;28;20146;-69
2023/05/16 01:40:53;;;;;;;7.30;0.82;;;9.20;72.90;;;;;;4990598;28;20061;-69
2023/05/16 01:43:30;;;;;;;6.20;0.90;;;9.20;72.90;;;;;;4989769;28;20074;-70
2023/05/16 01:46:02;;;;;;;8.32;1.13;;;9.20;72.90;;;;;;4971310;28;21024;-69
2023/05/16 01:48:35;;;;;;;10.40;1.25;;;9.10;73.00;;;;;;5005958;28;20061;-69
2023/05/16 01:51:04;;;;;;;7.97;0.93;;;9.10;73.20;;;;;;4990484;28;20077;-69
2023/05/16 01:53:37;;;;;;;7.60;0.80;;;9.00;73.10;;;;;;4991062;28;20484;-69
2023/05/16 01:56:12;;;;;;;9.47;1.70;;;9.00;73.20;;;;;;4987096;28;20043;-69
2023/05/16 01:58:41;;;;;;;6.72;1.10;;;9.00;73.10;;;;;;4987567;28;20255;-69
2023/05/16 02:01:08;;;;;;;9.13;1.10;;;9.00;73.30;;;;;;4992655;28;20129;-70
2023/05/16 02:03:38;;;;;;;8.07;0.90;;;8.90;73.60;;;;;;4990304;28;20574;-69
2023/05/16 02:06:05;;;;;;;9.13;1.05;;;8.90;73.60;;;;;;5006901;28;20160;-69
2023/05/16 02:08:32;;;;;;;9.87;1.40;;;8.90;73.40;;;;;;4990178;28;20109;-69
2023/05/16 02:10:59;;;;;;;11.10;1.40;;;8.90;73.30;;;;;;4970676;28;20263;-69
2023/05/16 02:13:26;;;;;;;9.30;1.10;;;8.80;73.60;;;;;;4986901;28;20506;-69
2023/05/16 02:15:55;;;;;;;10.95;1.23;;;8.80;73.50;;;;;;4973545;28;20098;-69
2023/05/16 02:18:22;;;;;;;11.80;1.13;;;8.80;73.50;;;;;;4989588;28;20149;-69
2023/05/16 02:20:50;;;;;;;11.60;1.20;;;8.70;73.40;;;;;;5022680;28;20132;-69
2023/05/16 02:23:18;;;;;;;7.07;0.98;;;8.70;73.50;;;;;;4973784;28;20337;-69
2023/05/16 02:25:45;;;;;;;6.75;0.98;;;8.60;73.50;;;;;;4974082;28;21050;-69
2023/05/16 02:28:12;;;;;;;7.55;0.90;;;8.60;73.60;;;;;;4992199;28;20136;-69
2023/05/16 02:30:39;;;;;;;9.95;1.20;;;8.60;73.80;;;;;;4993529;28;20057;-69
2023/05/16 02:33:08;;;;;;;6.17;0.90;;;8.60;73.90;;;;;;4993385;28;20101;-69
2023/05/16 02:35:35;;;;;;;9.77;1.30;;;8.50;74.00;;;;;;4975482;28;20391;-69
2023/05/16 02:38:02;;;;;;;7.22;0.90;;;8.50;74.10;;;;;;4993642;28;20052;-69
2023/05/16 02:40:29;;;;;;;5.85;0.85;;;8.40;74.20;;;;;;4996255;28;20046;-69
2023/05/16 02:42:56;;;;;;;7.90;0.80;;;8.40;74.30;;;;;;4976865;28;20051;-69
2023/05/16 02:45:23;;;;;;;7.43;1.00;;;8.30;74.50;;;;;;5009758;28;20062;-69
2023/05/16 02:47:51;;;;;;;7.28;0.68;;;8.30;74.70;;;;;;4977166;28;20251;-69
2023/05/16 02:50:20;;;;;;;7.28;1.23;;;8.30;74.80;;;;;;4976959;28;20050;-69
2023/05/16 02:52:48;;;;;;;6.35;0.80;;;8.20;74.80;;;;;;4992442;28;20050;-69
2023/05/16 02:55:15;;;;;;;7.22;1.10;;;8.20;74.90;;;;;;4992872;28;20055;-69
2023/05/16 02:57:42;;;;;;;7.67;1.20;;;8.20;75.00;;;;;;5011023;28;20153;-69
2023/05/16 03:00:13;;;;;;;6.57;0.98;;;8.10;75.20;;;;;;4976273;28;20983;-69
2023/05/16 03:02:40;;;;;;;7.95;1.25;;;8.10;75.50;;;;;;4992806;28;20057;-69
2023/05/16 03:05:08;;;;;;;6.68;0.98;;;8.10;75.50;;;;;;4976495;28;20050;-69
2023/05/16 03:07:37;;;;;;;10.32;1.35;;;8.10;75.40;;;;;;4976740;28;20054;-69
2023/05/16 03:10:06;;;;;;;8.93;1.33;;;8.00;75.40;;;;;;4975803;28;20504;-69
2023/05/16 03:12:33;;;;;;;4.55;0.52;;;8.00;75.50;;;;;;5010368;28;20286;-69
2023/05/16 03:15:01;;;;;;;7.80;1.25;;;8.00;75.90;;;;;;5010739;28;20520;-69
2023/05/16 03:17:50;;;;;;;6.90;1.10;;;8.00;76.00;;;;;;5011068;28;20054;-69
2023/05/16 03:20:17;;;;;;;7.70;1.17;;;7.90;76.20;;;;;;4975917;28;20909;-69
2023/05/16 03:22:46;;;;;;;8.87;1.10;;;7.80;76.40;;;;;;4992569;28;20570;-70
2023/05/16 03:25:14;;;;;;;7.28;1.00;;;7.80;76.40;;;;;;5010149;28;20274;-69
2023/05/16 03:27:41;;;;;;;5.72;0.95;;;7.80;76.30;;;;;;4991484;28;20047;-69
2023/05/16 03:30:09;;;;;;;11.05;1.20;;;7.80;76.40;;;;;;4973037;28;20138;-69
2023/05/16 03:32:37;;;;;;;9.48;1.30;;;7.70;76.40;;;;;;4988961;28;20051;-69
2023/05/16 03:35:05;;;;;;;9.03;1.10;;;7.70;76.60;;;;;;4992507;28;20137;-69
2023/05/16 03:37:32;;;;;;;4.97;0.95;;;7.60;76.80;;;;;;5010157;28;20281;-69
2023/05/16 03:40:02;;;;;;;11.18;1.33;;;7.60;76.80;;;;;;5025045;28;20090;-69
2023/05/16 03:42:30;;;;;;;7.05;0.82;;;7.60;77.00;;;;;;4991934;28;20598;-69
2023/05/16 03:44:57;;;;;;;11.85;1.67;;;7.60;77.10;;;;;;4991148;28;20051;-69
2023/05/16 03:47:24;;;;;;;10.27;1.47;;;7.50;77.70;;;;;;4992413;28;20046;-69
2023/05/16 03:49:52;;;;;;;6.85;0.70;;;7.50;77.40;;;;;;4992350;28;20262;-69
2023/05/16 03:52:19;;;;;;;9.23;1.38;;;7.50;77.70;;;;;;4992357;28;20058;-69
2023/05/16 03:54:46;;;;;;;11.15;1.40;;;7.50;77.50;;;;;;4984964;28;20057;-69
2023/05/16 03:57:16;;;;;;;5.90;1.15;;;7.50;78.00;;;;;;4992223;28;20051;-69
2023/05/16 03:59:43;;;;;;;8.80;1.03;;;7.50;77.60;;;;;;4992296;28;20049;-69
2023/05/16 04:02:10;;;;;;;7.43;1.23;;;7.50;77.70;;;;;;5008940;28;20844;-69
2023/05/16 04:04:38;;;;;;;8.57;1.20;;;7.50;77.60;;;;;;4992358;28;20511;-69
2023/05/16 04:07:05;;;;;;;7.07;1.05;;;7.50;77.70;;;;;;5010102;28;20054;-69
2023/05/16 04:09:32;;;;;;;10.43;1.40;;;7.50;77.90;;;;;;4991698;28;20077;-69
2023/05/16 04:12:00;;;;;;;6.50;1.00;;;7.50;78.00;;;;;;4991631;28;20050;-69
2023/05/16 04:14:29;;;;;;;7.80;1.20;;;7.50;77.90;;;;;;4991550;28;20266;-69
2023/05/16 04:16:56;;;;;;;10.23;1.35;;;7.40;78.50;;;;;;5017980;22;20081;-69
2023/05/16 04:19:23;;;;;;;7.57;0.90;;;7.40;78.30;;;;;;4992518;28;20128;-70
2023/05/16 04:21:51;;;;;;;13.85;1.42;;;7.40;78.50;;;;;;4991633;28;20053;-69
2023/05/16 04:24:18;;;;;;;9.40;1.60;;;7.40;78.70;;;;;;5028424;28;20058;-69
2023/05/16 04:26:45;;;;;;;7.88;0.93;;;7.40;78.60;;;;;;5029641;28;20256;-69
2023/05/16 04:29:13;;;;;;;5.82;1.02;;;7.40;79.00;;;;;;5008126;28;20078;-69
2023/05/16 04:31:41;;;;;;;8.23;1.33;;;7.40;78.70;;;;;;5011401;28;20061;-69
2023/05/16 04:34:09;;;;;;;8.07;1.30;;;7.40;78.60;;;;;;5011032;28;20097;-69
2023/05/16 04:36:36;;;;;;;8.57;1.33;;;7.40;78.70;;;;;;5010267;28;20410;-69
2023/05/16 04:39:03;;;;;;;7.85;1.38;;;7.40;79.00;;;;;;5029265;28;20316;-69
2023/05/16 04:41:34;;;;;;;6.18;1.10;;;7.40;79.00;;;;;;5010924;28;20104;-69
2023/05/16 04:44:03;;;;;;;9.05;1.60;;;7.40;79.20;;;;;;5027632;28;20066;-69
2023/05/16 04:46:30;;;;;;;10.95;1.20;;;7.40;79.10;;;;;;5028600;28;20515;-69
2023/05/16 04:48:59;;;;;;;9.90;1.60;;;7.40;79.20;;;;;;5093269;22;20057;-69
2023/05/16 04:51:26;;;;;;;7.38;1.10;;;7.40;78.90;;;;;;4979176;28;20280;-69
2023/05/16 04:53:53;;;;;;;6.80;1.27;;;7.40;79.40;;;;;;4986305;28;20069;-69
2023/05/16 04:56:21;;;;;;;7.63;1.00;;;7.40;79.10;;;;;;4987394;28;20055;-69
2023/05/16 04:58:48;;;;;;;10.50;1.50;;;7.50;79.20;;;;;;4974844;28;20620;-70
2023/05/16 05:01:15;;;;;;;9.77;1.30;;;7.50;79.30;;;;;;4985818;28;20047;-69
2023/05/16 05:03:43;;;;;;;7.75;1.23;;;7.50;79.50;;;;;;4965761;28;20279;-69
2023/05/16 05:06:11;;;;;;;7.63;1.50;;;7.50;79.20;;;;;;4968356;28;20184;-69
2023/05/16 05:08:38;;;;;;;6.78;1.05;;;7.50;79.40;;;;;;4975129;28;20047;-69
2023/05/16 05:11:05;;;;;;;10.25;1.05;;;7.50;79.20;;;;;;4986259;28;20053;-69
2023/05/16 05:13:32;;;;;;;4.97;0.83;;;7.60;79.70;;;;;;4973591;28;20059;-69
2023/05/16 05:16:00;;;;;;;7.40;1.35;;;7.60;79.70;;;;;;4988625;28;20657;-69
2023/05/16 05:18:27;;;;;;;9.07;1.13;;;7.60;79.70;;;;;;4975789;28;20054;-70
2023/05/16 05:20:55;;;;;;;6.50;1.20;;;7.80;79.60;;;;;;4972781;28;20604;-69
2023/05/16 05:23:26;;;;;;;5.97;1.45;;;7.80;79.70;;;;;;4986329;28;20059;-69
2023/05/16 05:25:53;;;;;;;3.87;0.77;;;7.80;79.50;;;;;;4987379;28;20068;-70
2023/05/16 05:28:20;;;;;;;10.35;1.75;;;7.80;79.70;;;;;;4969217;28;20269;-70
2023/05/16 05:30:48;;;;;;;6.85;0.90;;;7.80;79.30;;;;;;4969542;28;20894;-69
2023/05/16 05:33:17;;;;;;;8.13;0.90;;;7.90;79.50;;;;;;4972416;28;20137;-70
2023/05/16 05:35:45;;;;;;;5.45;0.68;;;8.00;79.20;;;;;;4987130;28;20136;-69
2023/05/16 05:38:12;;;;;;;5.07;0.77;;;8.00;79.40;;;;;;4956326;28;20049;-69
2023/05/16 05:40:40;;;;;;;5.95;0.88;;;8.10;79.30;;;;;;4969134;28;20327;-69
2023/05/16 05:43:07;;;;;;;5.18;0.60;;;8.10;78.80;;;;;;4986585;28;20058;-72
2023/05/16 05:45:34;;;;;;;7.93;1.15;;;8.20;78.40;;;;;;4967839;28;20051;-72
2023/05/16 05:48:02;;;;;;;7.70;1.05;;;8.20;78.50;;;;;;4968802;28;20513;-72
2023/05/16 05:50:29;;;;;;;7.60;0.90;;;8.30;78.70;;;;;;4984423;28;20102;-72
2023/05/16 05:52:56;;;;;;;4.85;0.90;;;8.30;78.50;;;;;;4967822;28;20282;-72
2023/05/16 05:55:23;;;;;;;6.57;1.05;;;8.40;78.40;;;;;;4985768;28;20055;-72
2023/05/16 05:57:52;;;;;;;7.45;1.00;;;8.40;78.30;;;;;;4969116;28;20058;-72
2023/05/16 06:00:19;;;;;;;7.30;1.05;;;8.50;78.40;;;;;;4985550;28;20130;-72
2023/05/16 06:02:48;;;;;;;9.87;1.07;;;8.50;78.20;;;;;;4962450;28;20943;-72
2023/05/16 06:05:15;;;;;;;9.90;1.40;;;8.60;77.90;;;;;;4984088;28;20345;-72
2023/05/16 06:07:42;;;;;;;6.07;0.90;;;8.60;77.90;;;;;;4969954;28;20556;-72
2023/05/16 06:10:09;;;;;;;6.97;1.00;;;8.60;77.80;;;;;;4977364;28;20509;-73
2023/05/16 06:12:36;;;;;;;5.28;0.90;;;8.60;77.60;;;;;;4971682;28;20050;-72
2023/05/16 06:15:06;;;;;;;8.43;1.20;;;8.70;77.30;;;;;;4968323;28;20047;-72
2023/05/16 06:17:33;;;;;;;7.53;1.10;;;8.80;77.60;;;;;;4986575;28;20273;-73
2023/05/16 06:20:00;;;;;;;10.00;1.45;;;8.80;78.10;;;;;;4985585;28;20050;-72
2023/05/16 06:22:27;;;;;;;6.35;0.90;;;8.90;77.60;;;;;;4987896;28;20152;-72
2023/05/16 06:24:54;;;;;;;8.10;0.98;;;9.00;77.70;;;;;;4988159;28;20055;-71
2023/05/16 06:27:21;;;;;;;5.83;0.80;;;9.00;77.80;;;;;;4969037;28;20047;-72
2023/05/16 06:29:48;;;;;;;3.58;0.52;;;9.00;77.60;;;;;;4986074;28;20262;-75
2023/05/16 06:32:17;;;;;;;3.97;0.60;;;9.10;77.50;;;;;;4982088;28;20074;-75
2023/05/16 06:34:44;;;;;;;4.60;0.70;;;9.20;77.00;;;;;;4981183;28;20047;-75
2023/05/16 06:37:11;;;;;;;6.60;1.23;;;9.20;77.10;;;;;;4983218;28;20061;-74
2023/05/16 06:39:38;;;;;;;5.77;0.77;;;9.20;77.00;;;;;;4973774;28;20046;-77
2023/05/16 06:42:05;;;;;;;3.00;0.50;;;9.30;76.70;;;;;;4981829;28;20281;-75
2023/05/16 06:44:33;;;;;;;10.93;0.90;;;9.40;76.00;;;;;;4978593;28;20050;-74
2023/05/16 06:47:00;;;;;;;6.78;1.05;;;9.40;75.80;;;;;;4987903;28;20417;-77
2023/05/16 06:49:28;;;;;;;4.40;0.50;;;9.40;75.80;;;;;;4966088;28;20150;-79
2023/05/16 06:51:55;;;;;;;5.20;0.67;;;9.50;75.30;;;;;;4966773;28;20515;-76
2023/05/16 06:54:22;;;;;;;5.10;0.75;;;9.60;75.10;;;;;;4968473;28;20788;-73
2023/05/16 06:56:49;;;;;;;4.25;0.40;;;9.60;74.10;;;;;;4976442;28;20181;-72
2023/05/16 06:59:17;;;;;;;2.72;0.30;;;9.60;72.60;;;;;;4980830;28;20039;-75
2023/05/16 07:01:44;;;;;;;4.90;0.47;;;9.60;71.90;;;;;;4990192;28;20161;-74
2023/05/16 07:04:11;;;;;;;3.40;0.30;;;9.60;72.20;;;;;;4987188;28;20051;-75
2023/05/16 07:06:39;;;;;;;3.28;0.55;;;9.70;71.80;;;;;;4985719;28;20279;-73
2023/05/16 07:09:07;;;;;;;2.70;0.30;;;9.60;71.60;;;;;;4972428;28;20529;-74
2023/05/16 07:11:34;;;;;;;2.03;0.30;;;9.60;71.00;;;;;;4976059;28;20043;-75
2023/05/16 07:14:01;;;;;;;3.67;0.30;;;9.60;71.30;;;;;;4985611;28;20050;-75
2023/05/16 07:16:28;;;;;;;3.37;0.47;;;9.60;71.40;;;;;;4992978;28;20078;-75
2023/05/16 07:18:55;;;;;;;3.08;0.45;;;9.70;70.90;;;;;;4969538;28;20760;-74
2023/05/16 07:21:22;;;;;;;5.88;0.70;;;9.70;70.90;;;;;;4991320;28;20055;-74
2023/05/16 07:23:51;;;;;;;3.13;0.40;;;9.70;71.10;;;;;;4955237;28;20051;-72
2023/05/16 07:26:21;;;;;;;3.80;0.30;;;9.70;71.60;;;;;;4988726;28;20061;-74
2023/05/16 07:28:48;;;;;;;2.83;0.30;;;9.80;72.40;;;;;;4969258;28;20057;-73
2023/05/16 07:31:15;;;;;;;5.18;0.38;;;9.80;72.20;;;;;;4981815;28;20279;-76
2023/05/16 07:33:42;;;;;;;4.35;0.73;;;9.90;72.30;;;;;;4999895;28;20054;-77
2023/05/16 07:36:11;;;;;;;6.82;0.68;;;10.00;71.90;;;;;;4983322;28;20051;-75
2023/05/16 07:38:38;;;;;;;3.65;0.55;;;10.00;72.10;;;;;;4971376;28;20062;-75
2023/05/16 07:41:06;;;;;;;4.90;0.60;;;10.10;72.10;;;;;;4989641;28;20058;-74
2023/05/16 07:43:34;;;;;;;7.20;0.70;;;10.10;70.60;;;;;;4967682;28;20369;-75
2023/05/16 07:46:02;;;;;;;4.78;0.63;;;10.20;71.00;;;;;;4969731;28;20050;-74
2023/05/16 07:48:29;;;;;;;5.90;0.60;;;10.20;71.20;;;;;;4966169;28;20050;-74
2023/05/16 07:50:56;;;;;;;3.17;0.50;;;10.30;71.50;;;;;;4964903;28;20521;-74
2023/05/16 07:53:23;;;;;;;6.40;0.40;;;10.30;70.90;;;;;;4968238;28;20062;-74
2023/05/16 07:55:50;;;;;;;7.82;0.57;;;10.40;70.70;;;;;;4987992;28;21408;-75
2023/05/16 07:58:19;;;;;;;3.03;0.30;;;10.50;70.30;;;;;;4972613;28;20053;-75
2023/05/16 08:00:46;;;;;;;5.65;1.02;;;10.50;69.40;;;;;;4970374;28;20082;-75
2023/05/16 08:03:13;;;;;;;2.63;0.38;;;10.50;69.90;;;;;;4972807;28;20051;-74
2023/05/16 08:05:41;;;;;;;4.17;0.60;;;10.50;69.40;;;;;;4969736;28;20114;-73
2023/05/16 08:08:08;;;;;;;3.88;0.40;;;10.50;69.60;;;;;;4985878;28;20282;-74
2023/05/16 08:10:35;;;;;;;3.70;0.40;;;10.50;68.30;;;;;;4985964;28;20054;-74
2023/05/16 08:13:02;;;;;;;6.15;0.45;;;10.60;68.70;;;;;;4972182;28;20056;-74
2023/05/16 08:15:31;;;;;;;3.95;0.40;;;10.60;68.20;;;;;;4955578;28;21124;-73
2023/05/16 08:17:58;;;;;;;7.70;0.63;;;10.60;68.20;;;;;;4992296;28;20154;-73
2023/05/16 08:20:26;;;;;;;6.13;0.55;;;10.60;68.40;;;;;;4971987;28;20293;-73
2023/05/16 08:22:53;;;;;;;3.03;0.30;;;10.60;68.70;;;;;;4970125;28;20051;-73
2023/05/16 08:25:20;;;;;;;3.88;0.93;;;10.60;68.20;;;;;;4969585;28;20053;-74
2023/05/16 08:27:49;;;;;;;4.10;0.70;;;10.60;67.80;;;;;;4985886;28;20130;-74
2023/05/16 08:30:17;;;;;;;5.07;0.50;;;10.60;66.60;;;;;;4985825;28;20050;-74
2023/05/16 08:32:45;;;;;;;2.53;0.40;;;10.60;67.70;;;;;;4970065;28;20687;-75
2023/05/16 08:35:12;;;;;;;3.55;0.60;;;10.60;68.40;;;;;;4986869;28;20133;-75
2023/05/16 08:37:39;;;;;;;4.75;0.70;;;10.70;67.50;;;;;;4989231;28;20051;-74
2023/05/16 08:40:09;;;;;;;8.52;1.00;;;10.70;67.60;;;;;;4969485;28;20508;-74
2023/05/16 08:42:37;;;;;;;3.30;0.57;;;10.70;67.50;;;;;;4971134;28;20054;-75
2023/05/16 08:45:05;;;;;;;2.45;0.57;;;10.80;68.20;;;;;;4971134;28;20844;-74
2023/05/16 08:47:33;;;;;;;4.75;0.50;;;10.80;66.00;;;;;;4971784;28;20053;-75
2023/05/16 08:50:03;;;;;;;5.65;1.00;;;10.90;66.70;;;;;;4970705;28;20049;-74
2023/05/16 08:52:32;;;;;;;5.63;0.63;;;10.90;62.50;;;;;;4970913;28;20051;-74
2023/05/16 08:55:04;;;;;;;4.23;0.63;;;10.90;64.10;;;;;;4969635;28;20568;-74
2023/05/16 08:57:32;;;;;;;2.95;0.65;;;10.90;63.80;;;;;;4971994;28;20342;-74
2023/05/16 09:00:00;;;;;;;4.78;0.70;;;10.90;64.90;;;;;;4988147;28;20058;-74
2023/05/16 09:02:27;;;;;;;3.80;0.47;;;10.90;66.20;;;;;;4979391;28;20051;-74
2023/05/16 09:04:57;;;;;;;2.28;0.40;;;10.90;66.50;;;;;;4968279;28;20199;-74
2023/05/16 09:07:25;;;;;;;3.57;0.73;;;10.90;66.50;;;;;;4967860;28;20065;-74
2023/05/16 09:09:53;;;;;;;4.07;0.70;;;10.90;66.50;;;;;;4968483;28;20290;-74
2023/05/16 09:12:21;;;;;;;6.18;0.70;;;10.90;66.70;;;;;;4980735;28;20061;-74
2023/05/16 09:14:48;;;;;;;1.85;0.30;;;11.00;66.60;;;;;;4986172;28;20055;-74
2023/05/16 09:17:15;;;;;;;6.13;0.70;;;11.00;65.50;;;;;;4971290;28;20481;-74
2023/05/16 09:19:43;;;;;;;3.37;0.40;;;11.00;65.50;;;;;;4970342;28;20055;-74
2023/05/16 09:22:13;;;;;;;3.75;0.30;;;11.00;66.20;;;;;;4971719;28;20247;-74
2023/05/16 09:24:42;;;;;;;4.68;0.50;;;11.00;66.90;;;;;;4967288;28;20059;-74
2023/05/16 09:27:10;;;;;;;4.93;0.45;;;11.00;67.10;;;;;;4984522;28;20039;-76
2023/05/16 09:29:40;;;;;;;2.25;0.30;;;11.10;66.70;;;;;;4983983;28;20562;-74
2023/05/16 09:32:12;;;;;;;3.07;0.30;;;11.10;67.00;;;;;;4981620;28;20059;-74
2023/05/16 09:34:42;;;;;;;5.45;0.68;;;11.10;66.40;;;;;;4983466;28;20274;-74
2023/05/16 09:37:10;;;;;;;7.30;0.75;;;11.20;66.50;;;;;;4967396;28;20163;-74
2023/05/16 09:39:38;;;;;;;3.30;0.40;;;11.30;66.30;;;;;;4969488;28;20425;-74
2023/05/16 09:42:11;;;;;;;3.17;0.40;;;11.30;65.20;;;;;;4969155;28;20081;-74
2023/05/16 09:44:38;;;;;;;7.07;0.83;;;11.40;65.10;;;;;;4986354;28;20050;-74
2023/05/16 09:47:06;;;;;;;6.95;0.60;;;11.50;65.90;;;;;;4966850;28;20329;-74
2023/05/16 09:49:33;;;;;;;2.78;0.40;;;11.50;65.50;;;;;;4983836;28;20092;-74
2023/05/16 09:52:01;;;;;;;7.53;0.60;;;11.60;63.90;;;;;;4984810;28;20061;-74
2023/05/16 09:54:32;;;;;;;5.85;0.65;;;11.60;62.90;;;;;;4985918;28;20051;-74
2023/05/16 09:57:00;;;;;;;5.60;0.50;;;11.70;62.30;;;;;;4969183;28;20599;-74
2023/05/16 09:59:30;;;;;;;7.00;1.15;;;11.70;63.40;;;;;;4969587;28;20330;-74
2023/05/16 10:01:59;;;;;;;6.43;0.50;;;11.70;63.60;;;;;;4969598;28;20194;-74
2023/05/16 10:04:26;;;;;;;4.97;0.52;;;11.90;62.50;;;;;;4987542;28;20059;-74
2023/05/16 10:06:56;;;;;;;6.50;0.73;;;11.90;61.60;;;;;;4968808;28;20510;-74
2023/05/16 10:09:24;;;;;;;4.90;0.60;;;11.90;61.80;;;;;;4970448;28;20277;-74
2023/05/16 10:11:52;;;;;;;3.33;0.57;;;12.00;63.20;;;;;;4953787;28;20255;-74
2023/05/16 10:14:21;;;;;;;6.47;0.73;;;12.10;63.60;;;;;;4969945;28;20079;-74
2023/05/16 10:16:51;;;;;;;7.57;0.75;;;12.10;63.30;;;;;;4968820;28;20051;-74
2023/05/16 10:19:21;;;;;;;2.38;0.30;;;12.20;62.20;;;;;;4986667;28;20055;-74
2023/05/16 10:21:52;;;;;;;6.00;0.60;;;12.20;62.40;;;;;;4969730;28;20042;-74
2023/05/16 10:24:26;;;;;;;5.70;0.85;;;12.30;62.40;;;;;;4981750;28;20345;-74
2023/05/16 10:26:53;;;;;;;5.10;0.50;;;12.30;62.20;;;;;;4973268;28;20047;-74
2023/05/16 10:29:21;;;;;;;5.55;0.50;;;12.50;61.80;;;;;;4967118;28;20102;-74
2023/05/16 10:31:50;;;;;;;3.70;0.40;;;12.50;61.20;;;;;;4982115;28;20110;-74
2023/05/16 10:34:18;;;;;;;5.33;0.70;;;12.50;62.00;;;;;;4985682;28;20509;-73
2023/05/16 10:36:46;;;;;;;4.45;0.52;;;12.50;61.40;;;;;;4985488;28;20473;-73
2023/05/16 10:39:14;;;;;;;3.50;0.47;;;12.50;60.00;;;;;;4967890;28;20966;-73
2023/05/16 10:41:42;;;;;;;5.18;0.43;;;12.50;60.90;;;;;;4964921;28;20054;-74
2023/05/16 10:44:15;;;;;;;6.38;0.80;;;12.50;60.00;;;;;;4985778;28;20126;-74
2023/05/16 10:46:42;;;;;;;4.47;0.40;;;12.50;60.30;;;;;;4977144;28;20051;-74
2023/05/16 10:49:25;;;;;;;4.97;0.90;;;12.50;59.00;;;;;;4976916;28;20290;-74
2023/05/16 10:52:07;;;;;;;3.97;0.60;;;12.50;59.80;;;;;;4989995;28;20146;-74
2023/05/16 10:54:35;;;;;;;5.15;0.50;;;12.50;57.70;;;;;;4972665;28;20491;-74
2023/05/16 10:57:08;;;;;;;7.28;0.82;;;12.60;57.40;;;;;;4966378;28;20112;-74
2023/05/16 10:59:45;;;;;;;3.47;0.40;;;12.70;56.40;;;;;;4972256;28;20086;-74
2023/05/16 11:02:24;;;;;;;4.50;1.48;;;12.70;56.50;;;;;;4974018;28;20404;-73
2023/05/16 11:04:54;;;;;;;3.58;0.45;;;12.60;55.20;;;;;;4988473;28;20134;-73
2023/05/16 11:07:24;;;;;;;5.00;0.40;;;12.50;55.40;;;;;;4958850;28;20047;-73
2023/05/16 11:10:04;;;;;;;4.80;0.70;;;12.50;57.00;;;;;;4970657;28;20058;-72
2023/05/16 11:12:45;;;;;;;4.07;0.40;;;12.50;59.30;;;;;;4970993;28;20046;-73
2023/05/16 11:15:20;;;;;;;4.90;0.55;;;12.50;58.90;;;;;;4914998;28;20270;-72
2023/05/16 11:17:47;;;;;;;3.95;0.40;;;12.50;59.70;;;;;;4954761;28;20059;-73
2023/05/16 11:20:32;;;;;;;3.28;0.90;;;12.50;59.00;;;;;;4967166;28;20138;-72
2023/05/16 11:23:25;;;;;;;5.22;0.55;;;12.50;59.00;;;;;;4971874;28;20664;-73
2023/05/16 11:25:54;;;;;;;6.40;0.87;;;12.50;60.80;;;;;;4943853;28;20083;-73
2023/05/16 11:28:23;;;;;;;3.83;0.40;;;12.50;60.20;;;;;;4938802;28;20354;-72
2023/05/16 11:30:54;;;;;;;5.50;0.73;;;12.50;60.00;;;;;;4952395;28;20537;-72
2023/05/16 11:33:22;;;;;;;5.00;1.02;;;12.50;61.30;;;;;;4970221;28;20117;-72
2023/05/16 11:36:07;;;;;;;4.30;0.80;;;12.60;60.00;;;;;;4952677;28;20058;-73
2023/05/16 11:38:35;;;;;;;4.97;0.80;;;12.70;60.40;;;;;;4938525;28;20040;-72
2023/05/16 11:41:05;;;;;;;8.40;0.85;;;12.70;60.50;;;;;;4952140;28;20850;-73
2023/05/16 11:43:43;;;;;;;4.93;0.70;;;12.80;60.10;;;;;;4952556;28;20055;-73
2023/05/16 11:50:36;;;;;;;6.80;0.82;;;12.90;56.20;;;;;;4966871;28;20540;-73
2023/05/16 11:53:05;;;;;;;9.47;0.80;;;13.00;58.30;;;;;;4952077;28;20051;-73
2023/05/16 11:55:33;;;;;;;7.05;1.00;;;13.10;58.40;;;;;;4934744;28;20691;-73
2023/05/16 11:58:01;;;;;;;4.68;0.82;;;13.10;58.80;;;;;;4969899;28;20055;-73
2023/05/16 12:00:29;;;;;;;6.40;0.90;;;13.10;55.90;;;;;;4965260;28;20048;-73
2023/05/16 12:03:03;;;;;;;5.30;0.93;;;13.10;57.50;;;;;;4952065;28;20043;-73
2023/05/16 12:05:31;;;;;;;3.73;0.87;;;13.00;59.50;;;;;;4951811;28;20055;-73
2023/05/16 12:07:58;;;;;;;2.25;0.32;;;12.80;60.80;;;;;;4966704;28;21230;-73
2023/05/16 12:10:27;;;;;;;5.07;0.60;;;12.60;61.90;;;;;;4962978;28;20052;-73
2023/05/16 12:12:55;;;;;;;3.65;0.60;;;12.50;62.30;;;;;;4965219;28;20059;-72
2023/05/16 12:15:22;;;;;;;4.68;0.60;;;12.40;64.00;;;;;;4942372;28;20110;-72
2023/05/16 12:17:50;;;;;;;2.67;0.40;;;12.30;65.00;;;;;;4975495;28;20047;-72
2023/05/16 12:20:18;;;;;;;4.40;0.70;;;12.20;65.80;;;;;;4951325;28;20317;-72
2023/05/16 12:22:46;;;;;;;6.15;0.80;;;12.20;66.20;;;;;;4968593;28;20061;-73
2023/05/16 12:25:25;;;;;;;5.55;1.15;;;12.20;65.90;;;;;;4965435;28;20122;-72
2023/05/16 12:27:55;;;;;;;5.40;0.90;;;12.20;66.60;;;;;;4951180;28;20047;-73
2023/05/16 12:30:23;;;;;;;5.90;1.17;;;12.30;66.70;;;;;;4953237;28;20135;-73
2023/05/16 12:32:56;;;;;;;5.32;1.00;;;12.50;66.10;;;;;;4954139;28;20275;-73
2023/05/16 12:35:24;;;;;;;4.45;0.90;;;12.50;64.70;;;;;;4967042;28;20060;-72
2023/05/16 12:37:51;;;;;;;5.45;0.90;;;12.50;62.30;;;;;;4957944;28;20051;-74
2023/05/16 12:40:19;;;;;;;5.43;1.20;;;12.70;61.80;;;;;;4966349;28;20058;-74
2023/05/16 12:42:49;;;;;;;5.37;0.83;;;12.70;61.90;;;;;;4964574;28;20901;-74
2023/05/16 12:45:17;;;;;;;6.43;0.95;;;12.70;61.80;;;;;;4950565;28;20737;-73
2023/05/16 12:47:45;;;;;;;6.18;1.15;;;12.80;62.50;;;;;;4964488;28;20047;-74
2023/05/16 12:50:16;;;;;;;6.32;1.05;;;12.90;62.90;;;;;;4948819;28;20043;-73
2023/05/16 12:52:51;;;;;;;8.02;1.45;;;12.90;63.00;;;;;;4949774;28;20047;-73
2023/05/16 12:55:19;;;;;;;10.17;1.40;;;13.00;63.50;;;;;;4962581;28;20047;-74
2023/05/16 12:57:47;;;;;;;7.28;1.48;;;13.00;62.40;;;;;;4968909;28;20311;-74
2023/05/16 13:00:18;;;;;;;7.00;1.00;;;13.10;62.30;;;;;;4949189;28;20051;-74
2023/05/16 13:02:46;;;;;;;8.90;1.50;;;13.20;61.20;;;;;;4965954;28;20449;-73